sensor_id;sensor_type;location;lat;lon;timestamp;temperature;humidity
28438;DHT22;15667;52.376;9.708;2023-04-24T00:00:13;14.00;99.90
28438;DHT22;15667;52.376;9.708;2023-04-24T00:02:40;13.50;99.90
28438;DHT22;15667;52.376;9.708;2023-04-24T00:05:07;14.00;99.90
28438;DHT22;15667;52.376;9.708;2023-04-24T00:07:36;12.60;99.90
28438;DHT22;15667;52.376;9.708;2023-04-24T00:10:01;12.80;99.90
28438;DHT22;15667;52.376;9.708;2023-04-24T00:12:27;12.70;99.90
28438;DHT22;15667;52.376;9.708;2023-04-24T00:14:53;12.60;99.90
28438;DHT22;15667;52.376;9.708;2023-04-24T00:17:19;12.70;99.90
28438;DHT22;15667;52.376;9.708;2023-04-24T00:19:48;12.60;99.90
28438;DHT22;15667;52.376;9.708;2023-04-24T00:22:14;13.80;99.90
28438;DHT22;15667;52.376;9.708;2023-04-24T00:24:40;12.50;99.90
28438;DHT22;15667;52.376;9.708;2023-04-24T00:27:05;12.50;99.90
28438;DHT22;15667;52.376;9.708;2023-04-24T00:29:31;12.40;99.90
28438;DHT22;15667;52.376;9.708;2023-04-24T00:31:57;12.40;99.90
28438;DHT22;15667;52.376;9.708;2023-04-24T00:34:22;12.40;99.90
28438;DHT22;15667;52.376;9.708;2023-04-24T00:36:48;12.80;99.90
28438;DHT22;15667;52.376;9.708;2023-04-24T00:39:21;12.30;99.90
28438;DHT22;15667;52.376;9.708;2023-04-24T00:41:47;12.40;99.90
28438;DHT22;15667;52.376;9.708;2023-04-24T00:44:14;12.30;99.90
28438;DHT22;15667;52.376;9.708;2023-04-24T00:46:40;12.40;99.90
28438;DHT22;15667;52.376;9.708;2023-04-24T00:49:06;12.30;99.90
28438;DHT22;15667;52.376;9.708;2023-04-24T00:51:32;13.60;99.90
28438;DHT22;15667;52.376;9.708;2023-04-24T00:53:58;13.30;99.90
28438;DHT22;15667;52.376;9.708;2023-04-24T00:56:25;13.60;99.90
28438;DHT22;15667;52.376;9.708;2023-04-24T00:58:51;11.60;99.90
28438;DHT22;15667;52.376;9.708;2023-04-24T01:01:18;12.40;99.90
28438;DHT22;15667;52.376;9.708;2023-04-24T01:03:46;12.30;99.90
28438;DHT22;15667;52.376;9.708;2023-04-24T01:06:12;13.10;99.90
28438;DHT22;15667;52.376;9.708;2023-04-24T01:08:39;12.20;99.90
28438;DHT22;15667;52.376;9.708;2023-04-24T01:11:06;12.30;99.90
28438;DHT22;15667;52.376;9.708;2023-04-24T01:13:33;12.30;99.90
28438;DHT22;15667;52.376;9.708;2023-04-24T01:16:00;12.30;99.90
28438;DHT22;15667;52.376;9.708;2023-04-24T01:18:26;13.20;99.90
28438;DHT22;15667;52.376;9.708;2023-04-24T01:20:54;12.20;99.90
28438;DHT22;15667;52.376;9.708;2023-04-24T01:23:22;13.00;99.90
28438;DHT22;15667;52.376;9.708;2023-04-24T01:25:49;12.10;99.90
28438;DHT22;15667;52.376;9.708;2023-04-24T01:28:15;12.60;99.90
28438;DHT22;15667;52.376;9.708;2023-04-24T01:30:41;13.10;99.90
28438;DHT22;15667;52.376;9.708;2023-04-24T01:33:07;12.10;99.90
28438;DHT22;15667;52.376;9.708;2023-04-24T01:35:33;12.10;99.90
28438;DHT22;15667;52.376;9.708;2023-04-24T01:37:59;12.80;99.90
28438;DHT22;15667;52.376;9.708;2023-04-24T01:40:25;11.90;99.90
28438;DHT22;15667;52.376;9.708;2023-04-24T01:42:51;12.00;99.90
28438;DHT22;15667;52.376;9.708;2023-04-24T01:45:16;12.00;99.90
28438;DHT22;15667;52.376;9.708;2023-04-24T01:47:42;13.10;99.90
28438;DHT22;15667;52.376;9.708;2023-04-24T01:50:08;11.90;99.90
28438;DHT22;15667;52.376;9.708;2023-04-24T01:52:34;11.80;99.90
28438;DHT22;15667;52.376;9.708;2023-04-24T01:55:04;11.80;99.90
28438;DHT22;15667;52.376;9.708;2023-04-24T01:57:31;12.20;99.90
28438;DHT22;15667;52.376;9.708;2023-04-24T01:59:57;13.20;99.90
28438;DHT22;15667;52.376;9.708;2023-04-24T02:02:23;12.30;99.90
28438;DHT22;15667;52.376;9.708;2023-04-24T02:04:53;12.80;99.90
28438;DHT22;15667;52.376;9.708;2023-04-24T02:07:19;12.70;99.90
28438;DHT22;15667;52.376;9.708;2023-04-24T02:09:45;11.70;99.90
28438;DHT22;15667;52.376;9.708;2023-04-24T02:12:11;13.00;99.90
28438;DHT22;15667;52.376;9.708;2023-04-24T02:14:36;11.70;99.90
28438;DHT22;15667;52.376;9.708;2023-04-24T02:17:02;11.70;99.90
28438;DHT22;15667;52.376;9.708;2023-04-24T02:19:27;13.20;99.90
28438;DHT22;15667;52.376;9.708;2023-04-24T02:21:53;11.70;99.90
28438;DHT22;15667;52.376;9.708;2023-04-24T02:24:19;11.80;99.90
28438;DHT22;15667;52.376;9.708;2023-04-24T02:26:44;13.10;99.90
28438;DHT22;15667;52.376;9.708;2023-04-24T02:29:10;11.70;99.90
28438;DHT22;15667;52.376;9.708;2023-04-24T02:31:36;12.30;99.90
28438;DHT22;15667;52.376;9.708;2023-04-24T02:34:01;11.00;99.90
28438;DHT22;15667;52.376;9.708;2023-04-24T02:36:27;12.20;99.90
28438;DHT22;15667;52.376;9.708;2023-04-24T02:39:01;11.60;99.90
28438;DHT22;15667;52.376;9.708;2023-04-24T02:41:27;11.60;99.90
28438;DHT22;15667;52.376;9.708;2023-04-24T02:43:58;11.80;99.90
28438;DHT22;15667;52.376;9.708;2023-04-24T02:46:24;12.80;99.90
28438;DHT22;15667;52.376;9.708;2023-04-24T02:48:50;11.40;99.90
28438;DHT22;15667;52.376;9.708;2023-04-24T02:51:15;10.50;99.90
28438;DHT22;15667;52.376;9.708;2023-04-24T02:53:41;11.50;99.90
28438;DHT22;15667;52.376;9.708;2023-04-24T02:56:06;11.50;99.90
28438;DHT22;15667;52.376;9.708;2023-04-24T02:58:32;12.10;99.90
28438;DHT22;15667;52.376;9.708;2023-04-24T03:00:58;12.10;99.90
28438;DHT22;15667;52.376;9.708;2023-04-24T03:03:23;12.30;99.90
28438;DHT22;15667;52.376;9.708;2023-04-24T03:05:49;12.20;99.90
28438;DHT22;15667;52.376;9.708;2023-04-24T03:08:15;11.40;99.90
28438;DHT22;15667;52.376;9.708;2023-04-24T03:10:41;12.70;99.90
28438;DHT22;15667;52.376;9.708;2023-04-24T03:13:07;12.20;99.90
28438;DHT22;15667;52.376;9.708;2023-04-24T03:15:32;12.70;99.90
28438;DHT22;15667;52.376;9.708;2023-04-24T03:17:58;11.30;99.90
28438;DHT22;15667;52.376;9.708;2023-04-24T03:20:24;11.30;99.90
28438;DHT22;15667;52.376;9.708;2023-04-24T03:22:50;11.30;99.90
28438;DHT22;15667;52.376;9.708;2023-04-24T03:25:15;12.00;99.90
28438;DHT22;15667;52.376;9.708;2023-04-24T03:27:41;12.60;99.90
28438;DHT22;15667;52.376;9.708;2023-04-24T03:30:07;11.20;99.90
28438;DHT22;15667;52.376;9.708;2023-04-24T03:32:33;11.10;99.90
28438;DHT22;15667;52.376;9.708;2023-04-24T03:34:58;11.00;99.90
28438;DHT22;15667;52.376;9.708;2023-04-24T03:37:24;11.10;99.90
28438;DHT22;15667;52.376;9.708;2023-04-24T03:39:50;12.60;99.90
28438;DHT22;15667;52.376;9.708;2023-04-24T03:42:16;12.30;99.90
28438;DHT22;15667;52.376;9.708;2023-04-24T03:44:42;11.90;99.90
28438;DHT22;15667;52.376;9.708;2023-04-24T03:47:07;11.00;99.90
28438;DHT22;15667;52.376;9.708;2023-04-24T03:49:33;11.30;99.90
28438;DHT22;15667;52.376;9.708;2023-04-24T03:51:59;12.40;99.90
28438;DHT22;15667;52.376;9.708;2023-04-24T03:54:32;12.60;99.90
28438;DHT22;15667;52.376;9.708;2023-04-24T03:57:04;11.60;99.90
28438;DHT22;15667;52.376;9.708;2023-04-24T03:59:31;11.00;99.90
28438;DHT22;15667;52.376;9.708;2023-04-24T04:02:05;11.20;99.90
28438;DHT22;15667;52.376;9.708;2023-04-24T04:04:39;11.10;99.90
28438;DHT22;15667;52.376;9.708;2023-04-24T04:09:48;10.00;99.90
28438;DHT22;15667;52.376;9.708;2023-04-24T04:12:16;10.50;99.90
28438;DHT22;15667;52.376;9.708;2023-04-24T04:14:45;12.50;99.90
28438;DHT22;15667;52.376;9.708;2023-04-24T04:17:11;11.10;99.90
28438;DHT22;15667;52.376;9.708;2023-04-24T04:19:36;11.10;99.90
28438;DHT22;15667;52.376;9.708;2023-04-24T04:22:02;11.40;99.90
28438;DHT22;15667;52.376;9.708;2023-04-24T04:24:28;11.20;99.90
28438;DHT22;15667;52.376;9.708;2023-04-24T04:26:56;10.40;99.90
28438;DHT22;15667;52.376;9.708;2023-04-24T04:29:23;12.60;99.90
28438;DHT22;15667;52.376;9.708;2023-04-24T04:31:49;10.90;99.90
28438;DHT22;15667;52.376;9.708;2023-04-24T04:34:15;11.60;99.90
28438;DHT22;15667;52.376;9.708;2023-04-24T04:36:41;11.10;99.90
28438;DHT22;15667;52.376;9.708;2023-04-24T04:39:08;11.90;99.90
28438;DHT22;15667;52.376;9.708;2023-04-24T04:41:33;11.10;99.90
28438;DHT22;15667;52.376;9.708;2023-04-24T04:44:03;11.00;99.90
28438;DHT22;15667;52.376;9.708;2023-04-24T04:46:30;12.40;99.90
28438;DHT22;15667;52.376;9.708;2023-04-24T04:49:00;10.90;99.90
28438;DHT22;15667;52.376;9.708;2023-04-24T04:51:27;11.70;99.90
28438;DHT22;15667;52.376;9.708;2023-04-24T04:53:53;11.00;99.90
28438;DHT22;15667;52.376;9.708;2023-04-24T04:56:19;12.10;99.90
28438;DHT22;15667;52.376;9.708;2023-04-24T04:58:45;11.50;99.90
28438;DHT22;15667;52.376;9.708;2023-04-24T05:01:10;11.00;99.90
28438;DHT22;15667;52.376;9.708;2023-04-24T05:03:36;11.00;99.90
28438;DHT22;15667;52.376;9.708;2023-04-24T05:06:02;9.70;99.90
28438;DHT22;15667;52.376;9.708;2023-04-24T05:08:31;9.70;99.90
28438;DHT22;15667;52.376;9.708;2023-04-24T05:10:57;11.10;99.90
28438;DHT22;15667;52.376;9.708;2023-04-24T05:13:22;12.50;99.90
28438;DHT22;15667;52.376;9.708;2023-04-24T05:15:48;11.80;99.90
28438;DHT22;15667;52.376;9.708;2023-04-24T05:18:13;12.70;99.90
28438;DHT22;15667;52.376;9.708;2023-04-24T05:20:39;11.60;99.90
28438;DHT22;15667;52.376;9.708;2023-04-24T05:23:05;12.30;99.90
28438;DHT22;15667;52.376;9.708;2023-04-24T05:25:31;10.80;99.90
28438;DHT22;15667;52.376;9.708;2023-04-24T05:28:01;11.20;99.90
28438;DHT22;15667;52.376;9.708;2023-04-24T05:30:28;9.80;99.90
28438;DHT22;15667;52.376;9.708;2023-04-24T05:32:53;12.20;99.90
28438;DHT22;15667;52.376;9.708;2023-04-24T05:35:19;11.30;99.90
28438;DHT22;15667;52.376;9.708;2023-04-24T05:37:44;12.50;99.90
28438;DHT22;15667;52.376;9.708;2023-04-24T05:40:11;12.70;99.90
28438;DHT22;15667;52.376;9.708;2023-04-24T05:42:36;12.10;99.90
28438;DHT22;15667;52.376;9.708;2023-04-24T05:45:02;13.00;99.90
28438;DHT22;15667;52.376;9.708;2023-04-24T05:47:28;11.50;99.90
28438;DHT22;15667;52.376;9.708;2023-04-24T05:49:54;12.40;99.90
28438;DHT22;15667;52.376;9.708;2023-04-24T05:52:20;11.50;99.90
28438;DHT22;15667;52.376;9.708;2023-04-24T05:54:45;11.60;99.90
28438;DHT22;15667;52.376;9.708;2023-04-24T05:57:11;12.30;99.90
28438;DHT22;15667;52.376;9.708;2023-04-24T05:59:37;11.70;99.90
28438;DHT22;15667;52.376;9.708;2023-04-24T06:02:04;11.90;99.90
28438;DHT22;15667;52.376;9.708;2023-04-24T06:04:29;11.90;99.90
28438;DHT22;15667;52.376;9.708;2023-04-24T06:06:55;12.20;99.90
28438;DHT22;15667;52.376;9.708;2023-04-24T06:09:25;12.80;99.90
28438;DHT22;15667;52.376;9.708;2023-04-24T06:11:51;12.20;99.90
28438;DHT22;15667;52.376;9.708;2023-04-24T06:14:20;12.00;99.90
28438;DHT22;15667;52.376;9.708;2023-04-24T06:16:46;12.10;99.90
28438;DHT22;15667;52.376;9.708;2023-04-24T06:19:11;12.60;99.90
28438;DHT22;15667;52.376;9.708;2023-04-24T06:21:37;12.90;99.90
28438;DHT22;15667;52.376;9.708;2023-04-24T06:24:03;12.50;99.90
28438;DHT22;15667;52.376;9.708;2023-04-24T06:26:30;11.90;99.90
28438;DHT22;15667;52.376;9.708;2023-04-24T06:28:55;11.90;99.90
28438;DHT22;15667;52.376;9.708;2023-04-24T06:31:21;13.30;99.90
28438;DHT22;15667;52.376;9.708;2023-04-24T06:33:48;13.20;99.90
28438;DHT22;15667;52.376;9.708;2023-04-24T06:36:15;11.90;99.90
28438;DHT22;15667;52.376;9.708;2023-04-24T06:38:41;13.30;99.90
28438;DHT22;15667;52.376;9.708;2023-04-24T06:41:06;12.60;99.90
28438;DHT22;15667;52.376;9.708;2023-04-24T06:43:32;12.00;99.90
28438;DHT22;15667;52.376;9.708;2023-04-24T06:45:59;13.00;99.90
28438;DHT22;15667;52.376;9.708;2023-04-24T06:48:25;13.00;99.90
28438;DHT22;15667;52.376;9.708;2023-04-24T06:50:51;13.20;99.90
28438;DHT22;15667;52.376;9.708;2023-04-24T06:53:17;12.20;99.90
28438;DHT22;15667;52.376;9.708;2023-04-24T06:55:43;12.20;99.90
28438;DHT22;15667;52.376;9.708;2023-04-24T06:58:15;12.50;99.90
28438;DHT22;15667;52.376;9.708;2023-04-24T07:00:41;13.70;99.90
28438;DHT22;15667;52.376;9.708;2023-04-24T07:03:07;12.90;99.90
28438;DHT22;15667;52.376;9.708;2023-04-24T07:05:32;12.30;99.90
28438;DHT22;15667;52.376;9.708;2023-04-24T07:08:06;12.70;99.90
28438;DHT22;15667;52.376;9.708;2023-04-24T07:10:32;12.50;99.90
28438;DHT22;15667;52.376;9.708;2023-04-24T07:13:02;13.50;99.90
28438;DHT22;15667;52.376;9.708;2023-04-24T07:15:27;12.50;99.90
28438;DHT22;15667;52.376;9.708;2023-04-24T07:17:53;12.50;99.90
28438;DHT22;15667;52.376;9.708;2023-04-24T07:20:24;13.10;99.90
28438;DHT22;15667;52.376;9.708;2023-04-24T07:22:50;12.40;99.90
28438;DHT22;15667;52.376;9.708;2023-04-24T07:25:20;13.60;99.90
28438;DHT22;15667;52.376;9.708;2023-04-24T07:27:45;12.70;99.90
28438;DHT22;15667;52.376;9.708;2023-04-24T07:30:11;12.60;99.90
28438;DHT22;15667;52.376;9.708;2023-04-24T07:32:37;12.50;99.90
28438;DHT22;15667;52.376;9.708;2023-04-24T07:35:03;12.40;99.90
28438;DHT22;15667;52.376;9.708;2023-04-24T07:37:31;12.40;99.90
28438;DHT22;15667;52.376;9.708;2023-04-24T07:39:57;13.20;99.90
28438;DHT22;15667;52.376;9.708;2023-04-24T07:42:25;12.70;99.90
28438;DHT22;15667;52.376;9.708;2023-04-24T07:44:51;13.10;99.90
28438;DHT22;15667;52.376;9.708;2023-04-24T07:47:17;13.00;99.90
28438;DHT22;15667;52.376;9.708;2023-04-24T07:49:42;13.30;99.90
28438;DHT22;15667;52.376;9.708;2023-04-24T07:52:14;12.80;99.90
28438;DHT22;15667;52.376;9.708;2023-04-24T07:54:40;13.60;99.90
28438;DHT22;15667;52.376;9.708;2023-04-24T07:57:05;12.60;99.90
28438;DHT22;15667;52.376;9.708;2023-04-24T07:59:33;12.60;99.90
28438;DHT22;15667;52.376;9.708;2023-04-24T08:01:59;13.20;99.90
28438;DHT22;15667;52.376;9.708;2023-04-24T08:04:26;12.60;99.90
28438;DHT22;15667;52.376;9.708;2023-04-24T08:06:52;12.50;99.90
28438;DHT22;15667;52.376;9.708;2023-04-24T08:09:17;13.40;99.90
28438;DHT22;15667;52.376;9.708;2023-04-24T08:11:49;12.50;99.90
28438;DHT22;15667;52.376;9.708;2023-04-24T08:14:15;13.30;99.90
28438;DHT22;15667;52.376;9.708;2023-04-24T08:16:41;12.50;99.90
28438;DHT22;15667;52.376;9.708;2023-04-24T08:19:10;12.60;99.90
28438;DHT22;15667;52.376;9.708;2023-04-24T08:21:35;14.00;99.90
28438;DHT22;15667;52.376;9.708;2023-04-24T08:24:01;12.60;99.90
28438;DHT22;15667;52.376;9.708;2023-04-24T08:26:35;13.50;99.90
28438;DHT22;15667;52.376;9.708;2023-04-24T08:29:00;12.70;99.90
28438;DHT22;15667;52.376;9.708;2023-04-24T08:31:26;12.80;99.90
28438;DHT22;15667;52.376;9.708;2023-04-24T08:34:09;12.80;99.90
28438;DHT22;15667;52.376;9.708;2023-04-24T08:36:44;13.00;99.90
28438;DHT22;15667;52.376;9.708;2023-04-24T08:39:10;13.90;99.90
28438;DHT22;15667;52.376;9.708;2023-04-24T08:41:37;13.20;99.90
28438;DHT22;15667;52.376;9.708;2023-04-24T08:44:03;12.60;99.90
28438;DHT22;15667;52.376;9.708;2023-04-24T08:46:32;13.10;99.90
28438;DHT22;15667;52.376;9.708;2023-04-24T08:48:58;13.50;99.90
28438;DHT22;15667;52.376;9.708;2023-04-24T08:51:26;13.60;99.90
28438;DHT22;15667;52.376;9.708;2023-04-24T08:53:54;13.40;99.90
28438;DHT22;15667;52.376;9.708;2023-04-24T08:56:21;14.30;99.90
28438;DHT22;15667;52.376;9.708;2023-04-24T08:58:52;13.90;99.90
28438;DHT22;15667;52.376;9.708;2023-04-24T09:01:22;13.40;99.90
28438;DHT22;15667;52.376;9.708;2023-04-24T09:03:53;14.00;99.90
28438;DHT22;15667;52.376;9.708;2023-04-24T09:06:21;13.10;99.90
28438;DHT22;15667;52.376;9.708;2023-04-24T09:08:50;12.80;99.90
28438;DHT22;15667;52.376;9.708;2023-04-24T09:11:18;13.20;99.90
28438;DHT22;15667;52.376;9.708;2023-04-24T09:13:44;14.00;99.90
28438;DHT22;15667;52.376;9.708;2023-04-24T09:16:11;13.10;99.90
28438;DHT22;15667;52.376;9.708;2023-04-24T09:18:37;13.00;99.90
28438;DHT22;15667;52.376;9.708;2023-04-24T09:21:06;13.60;99.90
28438;DHT22;15667;52.376;9.708;2023-04-24T09:23:32;13.50;99.90
28438;DHT22;15667;52.376;9.708;2023-04-24T09:25:59;13.40;99.90
28438;DHT22;15667;52.376;9.708;2023-04-24T09:28:36;13.40;99.90
28438;DHT22;15667;52.376;9.708;2023-04-24T09:31:14;13.20;99.90
28438;DHT22;15667;52.376;9.708;2023-04-24T09:34:00;13.00;99.90
28438;DHT22;15667;52.376;9.708;2023-04-24T09:36:31;13.00;99.90
28438;DHT22;15667;52.376;9.708;2023-04-24T09:39:00;12.80;99.90
28438;DHT22;15667;52.376;9.708;2023-04-24T09:41:26;11.90;99.90
28438;DHT22;15667;52.376;9.708;2023-04-24T09:43:55;13.00;99.90
28438;DHT22;15667;52.376;9.708;2023-04-24T09:46:29;12.80;99.90
28438;DHT22;15667;52.376;9.708;2023-04-24T09:51:51;12.80;99.90
28438;DHT22;15667;52.376;9.708;2023-04-24T09:54:20;13.00;99.90
28438;DHT22;15667;52.376;9.708;2023-04-24T09:56:50;13.00;99.90
28438;DHT22;15667;52.376;9.708;2023-04-24T09:59:18;13.10;99.90
28438;DHT22;15667;52.376;9.708;2023-04-24T10:01:44;13.00;99.90
28438;DHT22;15667;52.376;9.708;2023-04-24T10:06:44;13.20;99.90
28438;DHT22;15667;52.376;9.708;2023-04-24T10:09:10;12.70;99.90
28438;DHT22;15667;52.376;9.708;2023-04-24T10:11:37;13.50;99.90
28438;DHT22;15667;52.376;9.708;2023-04-24T10:14:07;12.80;99.90
28438;DHT22;15667;52.376;9.708;2023-04-24T10:16:34;13.30;99.90
28438;DHT22;15667;52.376;9.708;2023-04-24T10:19:03;13.00;99.90
28438;DHT22;15667;52.376;9.708;2023-04-24T10:21:29;12.80;99.90
28438;DHT22;15667;52.376;9.708;2023-04-24T10:23:55;12.70;99.90
28438;DHT22;15667;52.376;9.708;2023-04-24T10:26:22;13.00;99.90
28438;DHT22;15667;52.376;9.708;2023-04-24T10:28:48;13.00;99.90
28438;DHT22;15667;52.376;9.708;2023-04-24T10:31:14;13.30;99.90
28438;DHT22;15667;52.376;9.708;2023-04-24T10:33:42;12.70;99.90
28438;DHT22;15667;52.376;9.708;2023-04-24T10:36:12;12.50;99.90
28438;DHT22;15667;52.376;9.708;2023-04-24T10:38:41;13.00;99.90
28438;DHT22;15667;52.376;9.708;2023-04-24T10:41:15;12.90;99.90
28438;DHT22;15667;52.376;9.708;2023-04-24T10:43:53;12.00;99.90
28438;DHT22;15667;52.376;9.708;2023-04-24T10:46:30;12.70;99.90
28438;DHT22;15667;52.376;9.708;2023-04-24T10:48:56;13.10;99.90
28438;DHT22;15667;52.376;9.708;2023-04-24T10:51:24;12.70;99.90
28438;DHT22;15667;52.376;9.708;2023-04-24T10:53:52;12.60;99.90
28438;DHT22;15667;52.376;9.708;2023-04-24T10:56:18;12.90;99.90
28438;DHT22;15667;52.376;9.708;2023-04-24T10:58:50;13.20;99.90
28438;DHT22;15667;52.376;9.708;2023-04-24T11:01:30;12.30;99.90
28438;DHT22;15667;52.376;9.708;2023-04-24T11:04:02;12.40;99.90
28438;DHT22;15667;52.376;9.708;2023-04-24T11:06:33;12.30;99.90
28438;DHT22;15667;52.376;9.708;2023-04-24T11:09:08;12.00;99.90
28438;DHT22;15667;52.376;9.708;2023-04-24T11:11:35;12.70;99.90
28438;DHT22;15667;52.376;9.708;2023-04-24T11:14:04;13.40;99.90
28438;DHT22;15667;52.376;9.708;2023-04-24T11:16:45;12.40;99.90
28438;DHT22;15667;52.376;9.708;2023-04-24T11:19:21;12.40;99.90
28438;DHT22;15667;52.376;9.708;2023-04-24T11:22:04;12.60;99.90
28438;DHT22;15667;52.376;9.708;2023-04-24T11:32:43;12.40;99.90
28438;DHT22;15667;52.376;9.708;2023-04-24T11:35:17;12.50;99.90
28438;DHT22;15667;52.376;9.708;2023-04-24T11:37:44;12.70;99.90
28438;DHT22;15667;52.376;9.708;2023-04-24T11:40:13;12.80;99.90
28438;DHT22;15667;52.376;9.708;2023-04-24T11:42:43;12.50;99.90
28438;DHT22;15667;52.376;9.708;2023-04-24T11:45:10;12.60;99.90
28438;DHT22;15667;52.376;9.708;2023-04-24T11:47:37;12.50;99.90
28438;DHT22;15667;52.376;9.708;2023-04-24T11:50:05;13.90;99.90
28438;DHT22;15667;52.376;9.708;2023-04-24T11:52:31;12.30;99.90
28438;DHT22;15667;52.376;9.708;2023-04-24T11:55:00;12.20;99.90
28438;DHT22;15667;52.376;9.708;2023-04-24T11:57:26;12.30;99.90
28438;DHT22;15667;52.376;9.708;2023-04-24T11:59:59;12.50;99.90
28438;DHT22;15667;52.376;9.708;2023-04-24T12:02:26;12.80;99.90
28438;DHT22;15667;52.376;9.708;2023-04-24T12:04:53;13.10;99.90
28438;DHT22;15667;52.376;9.708;2023-04-24T12:07:19;13.90;99.90
28438;DHT22;15667;52.376;9.708;2023-04-24T12:09:59;12.80;99.90
28438;DHT22;15667;52.376;9.708;2023-04-24T12:12:28;12.70;99.90
28438;DHT22;15667;52.376;9.708;2023-04-24T12:18:34;13.00;99.90
28438;DHT22;15667;52.376;9.708;2023-04-24T12:28:22;12.30;99.90
28438;DHT22;15667;52.376;9.708;2023-04-24T12:30:53;11.60;99.90
28438;DHT22;15667;52.376;9.708;2023-04-24T12:33:22;12.60;99.90
28438;DHT22;15667;52.376;9.708;2023-04-24T12:35:54;12.70;99.90
28438;DHT22;15667;52.376;9.708;2023-04-24T12:38:39;12.80;99.90
28438;DHT22;15667;52.376;9.708;2023-04-24T12:41:13;12.60;99.90
28438;DHT22;15667;52.376;9.708;2023-04-24T12:43:52;12.70;99.90
28438;DHT22;15667;52.376;9.708;2023-04-24T12:46:24;12.70;99.90
28438;DHT22;15667;52.376;9.708;2023-04-24T12:48:54;13.00;99.90
28438;DHT22;15667;52.376;9.708;2023-04-24T12:51:24;13.10;99.90
28438;DHT22;15667;52.376;9.708;2023-04-24T12:53:50;13.80;99.90
28438;DHT22;15667;52.376;9.708;2023-04-24T12:56:18;12.00;99.90
28438;DHT22;15667;52.376;9.708;2023-04-24T12:58:47;13.10;99.90
28438;DHT22;15667;52.376;9.708;2023-04-24T13:01:13;12.70;99.90
28438;DHT22;15667;52.376;9.708;2023-04-24T13:03:42;12.60;99.90
28438;DHT22;15667;52.376;9.708;2023-04-24T13:06:08;12.30;99.90
28438;DHT22;15667;52.376;9.708;2023-04-24T13:08:34;12.30;99.90
28438;DHT22;15667;52.376;9.708;2023-04-24T13:11:24;12.90;99.90
28438;DHT22;15667;52.376;9.708;2023-04-24T13:13:50;10.60;99.90
28438;DHT22;15667;52.376;9.708;2023-04-24T13:16:16;12.50;99.90
28438;DHT22;15667;52.376;9.708;2023-04-24T13:18:41;12.20;99.90
28438;DHT22;15667;52.376;9.708;2023-04-24T13:21:07;11.90;99.90
28438;DHT22;15667;52.376;9.708;2023-04-24T13:23:33;11.40;99.90
28438;DHT22;15667;52.376;9.708;2023-04-24T13:25:58;11.10;99.90
28438;DHT22;15667;52.376;9.708;2023-04-24T13:28:25;11.70;99.90
28438;DHT22;15667;52.376;9.708;2023-04-24T13:30:51;11.00;99.90
28438;DHT22;15667;52.376;9.708;2023-04-24T13:33:16;11.00;99.90
28438;DHT22;15667;52.376;9.708;2023-04-24T13:35:42;11.00;99.90
28438;DHT22;15667;52.376;9.708;2023-04-24T13:38:08;11.70;99.90
28438;DHT22;15667;52.376;9.708;2023-04-24T13:40:33;11.90;99.90
28438;DHT22;15667;52.376;9.708;2023-04-24T13:42:59;10.60;99.90
28438;DHT22;15667;52.376;9.708;2023-04-24T13:45:25;10.40;99.90
28438;DHT22;15667;52.376;9.708;2023-04-24T13:47:51;10.30;99.90
28438;DHT22;15667;52.376;9.708;2023-04-24T13:50:17;10.30;99.90
28438;DHT22;15667;52.376;9.708;2023-04-24T13:55:26;10.40;99.90
28438;DHT22;15667;52.376;9.708;2023-04-24T13:57:52;11.40;99.90
28438;DHT22;15667;52.376;9.708;2023-04-24T14:00:20;11.40;99.90
28438;DHT22;15667;52.376;9.708;2023-04-24T14:02:46;10.10;99.90
28438;DHT22;15667;52.376;9.708;2023-04-24T14:05:13;10.60;99.90
28438;DHT22;15667;52.376;9.708;2023-04-24T14:07:50;10.00;99.90
28438;DHT22;15667;52.376;9.708;2023-04-24T14:10:16;9.80;99.90
28438;DHT22;15667;52.376;9.708;2023-04-24T14:12:41;9.80;99.90
28438;DHT22;15667;52.376;9.708;2023-04-24T14:15:07;11.00;99.90
28438;DHT22;15667;52.376;9.708;2023-04-24T14:17:34;9.40;99.90
28438;DHT22;15667;52.376;9.708;2023-04-24T14:19:59;10.60;99.90
28438;DHT22;15667;52.376;9.708;2023-04-24T14:22:26;9.30;99.90
28438;DHT22;15667;52.376;9.708;2023-04-24T14:24:51;10.20;99.90
28438;DHT22;15667;52.376;9.708;2023-04-24T14:27:17;10.50;99.90
28438;DHT22;15667;52.376;9.708;2023-04-24T14:29:43;9.30;99.90
28438;DHT22;15667;52.376;9.708;2023-04-24T14:32:10;10.10;99.90
28438;DHT22;15667;52.376;9.708;2023-04-24T14:34:47;9.00;99.90
28438;DHT22;15667;52.376;9.708;2023-04-24T14:37:29;9.60;99.90
28438;DHT22;15667;52.376;9.708;2023-04-24T14:40:20;8.70;99.90
28438;DHT22;15667;52.376;9.708;2023-04-24T14:42:57;8.60;99.90
28438;DHT22;15667;52.376;9.708;2023-04-24T14:45:26;8.50;99.90
28438;DHT22;15667;52.376;9.708;2023-04-24T14:47:53;8.40;99.90
28438;DHT22;15667;52.376;9.708;2023-04-24T14:50:20;8.50;99.90
28438;DHT22;15667;52.376;9.708;2023-04-24T14:52:46;9.40;99.90
28438;DHT22;15667;52.376;9.708;2023-04-24T14:56:04;8.40;99.90
28438;DHT22;15667;52.376;9.708;2023-04-24T14:58:32;8.50;99.90
28438;DHT22;15667;52.376;9.708;2023-04-24T15:00:58;8.30;99.90
28438;DHT22;15667;52.376;9.708;2023-04-24T15:03:24;8.50;99.90
28438;DHT22;15667;52.376;9.708;2023-04-24T15:05:52;8.50;99.90
28438;DHT22;15667;52.376;9.708;2023-04-24T16:46:46;9.70;99.90
28438;DHT22;15667;52.376;9.708;2023-04-24T17:26:47;9.40;99.90
28438;DHT22;15667;52.376;9.708;2023-04-24T19:14:19;8.50;99.90
28438;DHT22;15667;52.376;9.708;2023-04-24T19:16:47;8.50;99.90
28438;DHT22;15667;52.376;9.708;2023-04-24T19:19:12;9.20;99.90
28438;DHT22;15667;52.376;9.708;2023-04-24T19:21:38;8.70;99.90
28438;DHT22;15667;52.376;9.708;2023-04-24T19:24:04;8.80;99.90
28438;DHT22;15667;52.376;9.708;2023-04-24T19:26:29;8.60;99.90
28438;DHT22;15667;52.376;9.708;2023-04-24T19:28:56;8.60;99.90
28438;DHT22;15667;52.376;9.708;2023-04-24T19:31:24;8.60;99.90
28438;DHT22;15667;52.376;9.708;2023-04-24T19:33:49;8.60;99.90
28438;DHT22;15667;52.376;9.708;2023-04-24T19:36:15;8.60;99.90
28438;DHT22;15667;52.376;9.708;2023-04-24T19:38:44;8.50;99.90
28438;DHT22;15667;52.376;9.708;2023-04-24T19:41:10;8.60;99.90
28438;DHT22;15667;52.376;9.708;2023-04-24T19:43:37;8.60;99.90
28438;DHT22;15667;52.376;9.708;2023-04-24T19:46:03;8.80;99.90
28438;DHT22;15667;52.376;9.708;2023-04-24T19:48:29;9.40;99.90
28438;DHT22;15667;52.376;9.708;2023-04-24T19:51:00;8.50;99.90
28438;DHT22;15667;52.376;9.708;2023-04-24T19:53:27;8.60;99.90
28438;DHT22;15667;52.376;9.708;2023-04-24T19:55:53;8.50;99.90
28438;DHT22;15667;52.376;9.708;2023-04-24T19:58:19;8.60;99.90
28438;DHT22;15667;52.376;9.708;2023-04-24T20:00:44;9.60;99.90
28438;DHT22;15667;52.376;9.708;2023-04-24T20:03:10;8.80;99.90
28438;DHT22;15667;52.376;9.708;2023-04-24T20:05:35;8.40;99.90